Time;durP1;ratioP1;P1;durP2;ratioP2;P2;SDS_P1;SDS_P2;PMS_P1;PMS_P2;Temp;Humidity;BMP_temperature;BMP_pressure;BME280_temperature;BME280_humidity;BME280_pressure;Samples;Min_cycle;Max_cycle;Signal;HPM_P1;HPM_P2
2023/04/21 00:00:17;;;;;;;30.95;17.02;;;9.00;99.90;;;;;;5135389;27;20042;-58
2023/04/21 00:02:45;;;;;;;23.25;16.13;;;9.10;99.90;;;;;;5135590;27;20039;-58
2023/04/21 00:05:12;;;;;;;33.40;17.40;;;9.10;99.90;;;;;;5135612;27;20039;-58
2023/04/21 00:07:39;;;;;;;24.52;15.75;;;9.20;99.90;;;;;;5100399;27;20035;-57
2023/04/21 00:10:09;;;;;;;25.23;15.88;;;9.10;99.90;;;;;;5117360;27;20100;-58
2023/04/21 00:12:35;;;;;;;27.17;17.08;;;9.20;99.90;;;;;;5143260;27;20030;-57
2023/04/21 00:15:01;;;;;;;24.48;16.90;;;9.20;99.90;;;;;;5156097;27;20070;-58
2023/04/21 00:17:27;;;;;;;22.58;15.30;;;9.20;99.90;;;;;;5136566;27;20039;-58
2023/04/21 00:19:53;;;;;;;22.75;15.35;;;9.20;99.90;;;;;;5155856;27;20391;-57
2023/04/21 00:22:20;;;;;;;21.83;14.55;;;9.20;99.90;;;;;;5155876;27;20043;-58
2023/04/21 00:24:46;;;;;;;24.30;15.63;;;9.20;99.90;;;;;;5156060;27;20430;-57
2023/04/21 00:27:12;;;;;;;22.83;15.13;;;9.20;99.90;;;;;;5155776;27;20043;-58
2023/04/21 00:29:39;;;;;;;22.15;14.18;;;9.20;99.90;;;;;;5155828;27;20449;-58
2023/04/21 00:32:08;;;;;;;27.92;15.30;;;9.10;99.90;;;;;;5155800;27;20434;-58
2023/04/21 00:34:34;;;;;;;25.27;15.63;;;9.10;99.90;;;;;;5137378;27;20054;-59
2023/04/21 00:37:00;;;;;;;25.80;15.57;;;9.10;99.90;;;;;;5155967;27;20034;-58
2023/04/21 00:39:25;;;;;;;26.95;15.98;;;9.10;99.90;;;;;;5155777;27;20039;-58
2023/04/21 00:41:51;;;;;;;21.65;15.32;;;9.00;99.90;;;;;;5155423;27;20086;-58
2023/04/21 00:44:17;;;;;;;20.60;15.43;;;9.10;99.90;;;;;;5155631;27;20077;-58
2023/04/21 00:46:42;;;;;;;26.42;15.13;;;9.00;99.90;;;;;;5155471;27;20118;-58
2023/04/21 00:49:08;;;;;;;22.98;14.63;;;9.00;99.90;;;;;;5136172;27;20057;-58
2023/04/21 00:51:35;;;;;;;22.95;15.50;;;9.00;99.90;;;;;;5155580;27;20037;-58
2023/04/21 00:54:04;;;;;;;23.17;15.27;;;8.90;99.90;;;;;;5155490;27;20031;-58
2023/04/21 00:56:32;;;;;;;29.45;16.20;;;8.90;99.90;;;;;;5155400;27;20046;-58
2023/04/21 00:58:58;;;;;;;24.63;16.23;;;8.90;99.90;;;;;;5155170;27;20042;-57
2023/04/21 01:01:24;;;;;;;22.98;15.20;;;8.90;99.90;;;;;;5154981;27;20101;-57
2023/04/21 01:03:51;;;;;;;23.33;15.32;;;8.80;99.90;;;;;;5154801;27;20113;-58
2023/04/21 01:06:17;;;;;;;28.17;16.67;;;8.80;99.90;;;;;;5154989;27;20035;-58
2023/04/21 01:08:45;;;;;;;31.38;17.27;;;8.80;99.90;;;;;;5154692;27;20035;-58
2023/04/21 01:11:12;;;;;;;27.98;17.25;;;8.80;99.90;;;;;;5154017;27;20039;-59
2023/04/21 01:13:39;;;;;;;28.75;17.08;;;8.80;99.90;;;;;;5155098;27;20034;-57
2023/04/21 01:16:06;;;;;;;23.98;15.38;;;8.70;99.90;;;;;;5154801;27;20034;-58
2023/04/21 01:18:32;;;;;;;22.80;16.52;;;8.70;99.90;;;;;;5154616;27;20042;-58
2023/04/21 01:20:58;;;;;;;25.23;14.65;;;8.70;99.90;;;;;;5154779;27;20046;-57
2023/04/21 01:23:24;;;;;;;23.83;15.90;;;8.70;99.90;;;;;;5154925;27;20038;-58
2023/04/21 01:25:50;;;;;;;24.73;17.50;;;8.70;99.90;;;;;;5154274;27;20073;-58
2023/04/21 01:28:23;;;;;;;27.17;15.85;;;8.70;99.90;;;;;;5154786;27;20046;-57
2023/04/21 01:30:49;;;;;;;21.77;15.20;;;8.60;99.90;;;;;;5154347;27;20081;-57
2023/04/21 01:33:15;;;;;;;32.30;15.75;;;8.60;99.90;;;;;;5136032;27;20441;-59
2023/04/21 01:35:41;;;;;;;22.77;15.68;;;8.60;99.90;;;;;;5154629;27;20030;-59
2023/04/21 01:38:06;;;;;;;28.08;15.70;;;8.60;99.90;;;;;;5154667;27;20042;-59
2023/04/21 01:40:32;;;;;;;24.42;15.55;;;8.50;99.90;;;;;;5154298;27;20031;-59
2023/04/21 01:42:58;;;;;;;22.70;15.93;;;8.50;99.90;;;;;;5154350;27;20047;-59
2023/04/21 01:45:24;;;;;;;22.88;15.82;;;8.50;99.90;;;;;;5154349;27;20035;-59
2023/04/21 01:47:50;;;;;;;20.40;14.35;;;8.50;99.90;;;;;;5154220;27;20126;-59
2023/04/21 01:50:15;;;;;;;22.60;15.00;;;8.50;99.90;;;;;;5154482;27;20056;-59
2023/04/21 01:52:41;;;;;;;24.38;15.55;;;8.50;99.90;;;;;;5154460;27;20812;-59
2023/04/21 01:55:07;;;;;;;25.67;15.52;;;8.50;99.90;;;;;;5154583;27;20035;-59
2023/04/21 01:57:33;;;;;;;21.50;14.80;;;8.50;99.90;;;;;;5135507;27;20412;-58
2023/04/21 01:59:58;;;;;;;23.90;15.65;;;8.40;99.90;;;;;;5153405;27;20035;-58
2023/04/21 02:02:24;;;;;;;18.58;14.60;;;8.40;99.90;;;;;;5154235;27;20485;-58
2023/04/21 02:04:50;;;;;;;21.50;15.15;;;8.40;99.90;;;;;;5153884;27;20043;-58
2023/04/21 02:07:16;;;;;;;24.45;15.13;;;8.50;99.90;;;;;;5153976;27;20150;-59
2023/04/21 02:09:41;;;;;;;25.23;15.07;;;8.40;99.90;;;;;;5153918;27;20042;-58
2023/04/21 02:12:07;;;;;;;21.48;14.95;;;8.40;99.90;;;;;;5153995;27;20105;-57
2023/04/21 02:14:33;;;;;;;22.02;15.60;;;8.40;99.90;;;;;;5153749;27;20138;-57
2023/04/21 02:16:58;;;;;;;26.63;15.40;;;8.40;99.90;;;;;;5154345;27;20042;-58
2023/04/21 02:19:24;;;;;;;23.83;15.57;;;8.30;99.90;;;;;;5153861;27;20031;-58
2023/04/21 02:21:50;;;;;;;24.55;15.55;;;8.30;99.90;;;;;;5153951;27;20468;-58
2023/04/21 02:24:15;;;;;;;24.48;15.85;;;8.30;99.90;;;;;;5154184;27;20061;-58
2023/04/21 02:26:41;;;;;;;28.77;16.15;;;8.40;99.90;;;;;;5153671;27;20480;-58
2023/04/21 02:29:07;;;;;;;23.35;15.80;;;8.30;99.90;;;;;;5153794;27;20035;-58
2023/04/21 02:31:32;;;;;;;19.15;14.93;;;8.30;99.90;;;;;;5154347;27;20043;-58
2023/04/21 02:33:58;;;;;;;25.27;16.70;;;8.30;99.90;;;;;;5153911;27;20685;-58
2023/04/21 02:36:25;;;;;;;21.77;16.10;;;8.30;99.90;;;;;;5154031;27;20042;-58
2023/04/21 02:38:50;;;;;;;22.40;15.48;;;8.20;99.90;;;;;;5153538;27;20109;-58
2023/04/21 02:41:16;;;;;;;23.92;15.43;;;8.20;99.90;;;;;;5153361;27;20138;-58
2023/04/21 02:43:42;;;;;;;26.05;16.20;;;8.20;99.90;;;;;;5152506;27;20117;-58
2023/04/21 02:46:08;;;;;;;21.20;15.13;;;8.20;99.90;;;;;;5153831;27;20092;-59
2023/04/21 02:48:34;;;;;;;21.75;14.90;;;8.20;99.90;;;;;;5153783;27;20502;-59
2023/04/21 02:51:00;;;;;;;29.42;16.20;;;8.20;99.90;;;;;;5153735;27;20039;-59
2023/04/21 02:53:26;;;;;;;24.33;16.42;;;8.20;99.90;;;;;;5153491;27;20469;-59
2023/04/21 02:55:51;;;;;;;23.55;15.65;;;8.20;99.90;;;;;;5153684;27;20563;-58
2023/04/21 02:58:17;;;;;;;23.20;16.20;;;8.10;99.90;;;;;;5134598;27;20050;-58
2023/04/21 03:00:43;;;;;;;24.02;16.67;;;8.20;99.90;;;;;;5153628;27;20050;-58
2023/04/21 03:03:09;;;;;;;25.38;16.58;;;8.20;99.90;;;;;;5153559;27;20109;-57
2023/04/21 03:05:34;;;;;;;25.83;17.17;;;8.20;99.90;;;;;;5153265;27;20459;-57
2023/04/21 03:08:00;;;;;;;22.73;15.70;;;8.20;99.90;;;;;;5153387;27;20037;-58
2023/04/21 03:10:26;;;;;;;23.75;16.23;;;8.20;99.90;;;;;;5153645;27;20473;-58
2023/04/21 03:12:52;;;;;;;26.08;15.65;;;8.10;99.90;;;;;;5138749;27;20068;-59
2023/04/21 03:15:18;;;;;;;22.17;16.77;;;8.10;99.90;;;;;;5138721;27;20084;-59
2023/04/21 03:17:44;;;;;;;23.50;16.50;;;8.20;99.90;;;;;;5157387;27;20042;-59
2023/04/21 03:20:11;;;;;;;25.80;16.75;;;8.20;99.90;;;;;;5157357;27;20117;-59
2023/04/21 03:22:40;;;;;;;26.80;16.17;;;8.20;99.90;;;;;;5138819;27;20038;-59
2023/04/21 03:25:06;;;;;;;22.55;15.75;;;8.20;99.90;;;;;;5157278;27;20042;-59
2023/04/21 03:27:32;;;;;;;20.00;14.98;;;8.10;99.90;;;;;;5157648;27;20027;-59
2023/04/21 03:29:58;;;;;;;26.88;15.80;;;8.20;99.90;;;;;;5139190;27;20043;-59
2023/04/21 03:32:24;;;;;;;22.02;15.38;;;8.20;99.90;;;;;;5156179;27;20396;-58
2023/04/21 03:34:50;;;;;;;24.23;14.18;;;8.20;99.90;;;;;;5157141;27;20042;-57
2023/04/21 03:37:15;;;;;;;24.92;14.63;;;8.20;99.90;;;;;;5156985;27;20062;-58
2023/04/21 03:39:41;;;;;;;22.13;14.63;;;8.20;99.90;;;;;;5156845;27;20392;-57
2023/04/21 03:42:07;;;;;;;23.73;14.93;;;8.20;99.90;;;;;;5155716;27;20094;-58
2023/04/21 03:44:32;;;;;;;28.13;15.25;;;8.20;99.90;;;;;;5156647;27;20126;-57
2023/04/21 03:46:58;;;;;;;21.63;13.73;;;8.30;99.90;;;;;;5138170;27;20051;-58
2023/04/21 03:49:24;;;;;;;24.63;14.65;;;8.30;99.90;;;;;;5156369;27;20403;-58
2023/04/21 03:51:50;;;;;;;22.98;14.57;;;8.30;99.90;;;;;;5155832;27;20039;-58
2023/04/21 03:54:15;;;;;;;19.30;14.55;;;8.20;99.90;;;;;;5137844;27;20054;-59
2023/04/21 03:56:41;;;;;;;23.23;14.15;;;8.20;99.90;;;;;;5156386;27;20484;-58
2023/04/21 03:59:07;;;;;;;20.27;13.07;;;8.20;99.90;;;;;;5156677;27;20472;-57
2023/04/21 04:01:33;;;;;;;21.95;13.80;;;8.20;99.90;;;;;;5156461;27;20031;-58
2023/04/21 04:03:59;;;;;;;25.10;14.80;;;8.20;99.90;;;;;;5156389;27;20031;-58
2023/04/21 04:06:25;;;;;;;22.55;13.75;;;8.30;99.90;;;;;;5137714;27;20046;-57
2023/04/21 04:08:51;;;;;;;22.70;13.82;;;8.20;99.90;;;;;;5156257;27;20042;-58
2023/04/21 04:11:16;;;;;;;25.50;14.52;;;8.20;99.90;;;;;;5137521;27;20835;-58
2023/04/21 04:13:42;;;;;;;21.17;13.90;;;8.20;99.90;;;;;;5156326;27;20087;-58
2023/04/21 04:16:07;;;;;;;20.77;13.88;;;8.20;99.90;;;;;;5156093;27;20083;-57
2023/04/21 04:18:33;;;;;;;27.35;14.20;;;8.10;99.90;;;;;;5155398;27;20087;-57
2023/04/21 04:21:06;;;;;;;21.25;14.63;;;8.20;99.90;;;;;;5156012;27;20042;-57
2023/04/21 04:23:32;;;;;;;18.40;14.13;;;8.20;99.90;;;;;;5156244;27;20039;-57
2023/04/21 04:25:58;;;;;;;28.05;16.08;;;8.10;99.90;;;;;;5155991;27;20045;-59
2023/04/21 04:28:24;;;;;;;21.90;14.52;;;8.20;99.90;;;;;;5156220;27;20046;-58
2023/04/21 04:30:49;;;;;;;29.02;14.25;;;8.10;99.90;;;;;;5156086;27;20035;-57
2023/04/21 04:33:15;;;;;;;22.50;13.95;;;8.10;99.90;;;;;;5155818;27;20083;-57
2023/04/21 04:35:40;;;;;;;19.42;14.02;;;8.20;99.90;;;;;;5155825;27;20039;-58
2023/04/21 04:38:06;;;;;;;17.55;12.25;;;8.20;99.90;;;;;;5155793;27;20122;-58
2023/04/21 04:40:32;;;;;;;22.58;13.77;;;8.20;99.90;;;;;;5155120;27;20070;-57
2023/04/21 04:43:00;;;;;;;21.00;13.32;;;8.20;99.90;;;;;;5136532;27;20054;-58
2023/04/21 04:45:27;;;;;;;21.35;13.35;;;8.30;99.90;;;;;;5134968;27;20039;-57
2023/04/21 04:47:53;;;;;;;24.63;13.68;;;8.30;99.90;;;;;;5134881;27;20039;-57
2023/04/21 04:50:19;;;;;;;18.83;13.45;;;8.30;99.90;;;;;;5116182;27;20076;-58
2023/04/21 04:52:45;;;;;;;19.00;12.40;;;8.30;99.90;;;;;;5134654;27;20396;-59
2023/04/21 04:55:12;;;;;;;21.95;12.48;;;8.30;99.90;;;;;;5134390;27;20035;-57
2023/04/21 04:57:38;;;;;;;18.05;11.63;;;8.30;99.90;;;;;;5140169;27;20064;-57
2023/04/21 05:00:09;;;;;;;23.67;12.27;;;8.30;99.90;;;;;;5148979;27;20047;-57
2023/04/21 05:02:35;;;;;;;17.35;11.50;;;8.40;99.90;;;;;;5134375;27;20058;-58
2023/04/21 05:05:01;;;;;;;24.08;12.68;;;8.40;99.90;;;;;;5116055;27;20488;-59
2023/04/21 05:07:27;;;;;;;21.02;12.98;;;8.40;99.90;;;;;;5134589;27;20072;-59
2023/04/21 05:09:53;;;;;;;19.58;12.38;;;8.50;99.90;;;;;;5134188;27;20047;-57
2023/04/21 05:12:19;;;;;;;17.73;11.73;;;8.50;99.90;;;;;;5134274;27;20125;-57
2023/04/21 05:14:44;;;;;;;21.23;12.00;;;8.50;99.90;;;;;;5115906;27;20118;-58
2023/04/21 05:17:10;;;;;;;18.88;11.80;;;8.60;99.90;;;;;;5134002;27;20034;-58
2023/04/21 05:19:38;;;;;;;19.15;11.40;;;8.60;99.90;;;;;;5134038;27;20108;-58
2023/04/21 05:22:05;;;;;;;21.17;12.10;;;8.70;99.90;;;;;;5134247;27;20031;-58
2023/04/21 05:24:32;;;;;;;18.50;11.50;;;8.70;99.90;;;;;;5098567;27;20281;-58
2023/04/21 05:26:58;;;;;;;20.02;10.90;;;8.80;99.90;;;;;;5134095;27;20469;-58
2023/04/21 05:29:23;;;;;;;19.08;11.02;;;8.80;99.90;;;;;;5141719;27;20027;-58
2023/04/21 05:31:49;;;;;;;17.00;11.10;;;8.90;99.90;;;;;;5136053;27;20045;-58
2023/04/21 05:34:15;;;;;;;18.73;11.88;;;9.00;99.90;;;;;;5152892;27;20035;-58
2023/04/21 05:36:41;;;;;;;17.10;11.35;;;9.00;99.90;;;;;;5154680;27;20149;-58
2023/04/21 05:39:07;;;;;;;18.95;11.30;;;9.10;99.90;;;;;;5154858;27;20042;-58
2023/04/21 05:41:33;;;;;;;18.88;10.88;;;9.20;99.90;;;;;;5154342;27;20400;-57
2023/04/21 05:43:58;;;;;;;16.88;11.05;;;9.30;99.90;;;;;;5143952;27;20031;-58
2023/04/21 05:46:24;;;;;;;16.83;10.73;;;9.30;99.90;;;;;;5133520;27;20043;-58
2023/04/21 05:48:50;;;;;;;21.00;11.63;;;9.40;99.90;;;;;;5133484;27;20035;-59
2023/04/21 05:51:15;;;;;;;19.23;10.90;;;9.40;99.90;;;;;;5133405;27;20112;-59
2023/04/21 05:53:42;;;;;;;16.10;9.80;;;9.40;99.90;;;;;;5115456;27;20035;-59
2023/04/21 05:56:09;;;;;;;18.63;9.90;;;9.60;99.90;;;;;;5133677;27;20062;-59
2023/04/21 05:58:35;;;;;;;19.63;10.27;;;9.60;99.90;;;;;;5133504;27;20035;-59
2023/04/21 06:01:01;;;;;;;22.35;10.63;;;9.70;99.90;;;;;;5115439;27;20043;-59
2023/04/21 06:03:26;;;;;;;16.30;10.02;;;9.80;99.90;;;;;;5133265;27;20092;-59
2023/04/21 06:05:55;;;;;;;17.15;9.85;;;9.90;99.90;;;;;;5135874;27;20041;-58
2023/04/21 06:08:21;;;;;;;16.88;9.70;;;10.00;99.90;;;;;;5135513;27;20447;-59
2023/04/21 06:10:47;;;;;;;20.25;10.43;;;10.10;99.90;;;;;;5154043;27;20046;-57
2023/04/21 06:13:13;;;;;;;18.42;9.93;;;10.20;99.90;;;;;;5154030;27;20038;-57
2023/04/21 06:15:38;;;;;;;22.30;9.68;;;10.30;99.90;;;;;;5153966;27;20031;-58
2023/04/21 06:18:04;;;;;;;20.45;9.80;;;10.30;99.90;;;;;;5153877;27;20114;-63
2023/04/21 06:20:30;;;;;;;17.90;10.48;;;10.50;99.90;;;;;;5153634;27;20042;-58
2023/04/21 06:22:56;;;;;;;21.30;9.75;;;10.60;99.90;;;;;;5153951;27;20118;-58
2023/04/21 06:25:21;;;;;;;15.98;10.10;;;10.70;99.90;;;;;;5153917;27;20044;-58
2023/04/21 06:27:47;;;;;;;19.92;9.50;;;10.90;99.90;;;;;;5154157;27;20062;-58
2023/04/21 06:30:13;;;;;;;26.40;10.98;;;11.00;99.90;;;;;;5154048;27;20038;-59
2023/04/21 06:32:39;;;;;;;22.90;10.52;;;11.10;99.90;;;;;;5153636;27;20380;-58
2023/04/21 06:35:05;;;;;;;16.83;9.48;;;11.10;99.90;;;;;;5153725;27;20027;-59
2023/04/21 06:37:30;;;;;;;16.63;9.52;;;11.20;99.90;;;;;;5153890;27;20037;-59
2023/04/21 06:39:56;;;;;;;13.80;9.88;;;11.20;99.90;;;;;;5153878;27;20041;-58
2023/04/21 06:42:22;;;;;;;15.68;9.13;;;11.40;99.90;;;;;;5153535;27;20400;-58
2023/04/21 06:44:48;;;;;;;19.08;9.60;;;11.50;99.90;;;;;;5136022;27;20531;-58
2023/04/21 06:47:15;;;;;;;18.45;9.40;;;11.70;99.90;;;;;;5157956;27;20038;-57
2023/04/21 06:49:41;;;;;;;14.45;9.15;;;12.00;99.90;;;;;;5139084;27;20049;-58
2023/04/21 06:52:07;;;;;;;20.95;9.30;;;12.00;99.90;;;;;;5157512;27;20038;-58
2023/04/21 06:54:32;;;;;;;15.43;9.50;;;12.10;99.90;;;;;;5145629;27;20042;-58
2023/04/21 06:56:58;;;;;;;18.05;8.88;;;12.10;99.90;;;;;;5118366;27;20043;-58
2023/04/21 06:59:24;;;;;;;21.67;9.13;;;12.20;99.90;;;;;;5118277;27;20111;-59
2023/04/21 07:01:51;;;;;;;19.15;8.60;;;12.30;99.90;;;;;;5136509;27;20454;-59
2023/04/21 07:04:19;;;;;;;15.05;8.63;;;12.50;99.90;;;;;;5136356;27;20087;-58
2023/04/21 07:06:46;;;;;;;17.10;9.30;;;12.60;99.90;;;;;;5136539;27;20084;-58
2023/04/21 07:09:12;;;;;;;18.77;8.88;;;12.80;99.90;;;;;;5136350;27;20126;-59
2023/04/21 07:11:37;;;;;;;16.08;9.35;;;12.90;99.90;;;;;;5136369;27;20118;-58
2023/04/21 07:14:03;;;;;;;17.15;9.45;;;13.10;99.90;;;;;;5136340;27;20062;-58
2023/04/21 07:16:29;;;;;;;15.95;8.60;;;13.20;99.90;;;;;;5136204;27;20110;-57
2023/04/21 07:18:55;;;;;;;17.38;8.38;;;13.20;99.90;;;;;;5148391;27;20035;-58
2023/04/21 07:21:21;;;;;;;15.10;8.23;;;13.40;99.90;;;;;;5138911;27;20495;-58
2023/04/21 07:23:46;;;;;;;16.58;8.90;;;13.60;99.90;;;;;;5128090;27;20059;-58
2023/04/21 07:26:12;;;;;;;14.63;9.07;;;13.70;99.90;;;;;;5136226;27;20070;-58
2023/04/21 07:28:39;;;;;;;16.85;9.45;;;13.80;99.90;;;;;;5117430;27;20047;-59
2023/04/21 07:31:05;;;;;;;14.95;8.40;;;14.10;99.90;;;;;;5117592;27;20123;-58
2023/04/21 07:33:31;;;;;;;13.55;8.25;;;14.20;99.90;;;;;;5135887;27;20027;-58
2023/04/21 07:35:57;;;;;;;20.92;9.45;;;14.40;99.90;;;;;;5150144;27;20538;-59
2023/04/21 07:38:23;;;;;;;12.57;8.40;;;14.50;99.90;;;;;;5138282;27;20503;-58
2023/04/21 07:40:50;;;;;;;22.30;8.52;;;14.50;99.90;;;;;;5156744;27;20080;-59
2023/04/21 07:43:18;;;;;;;16.85;8.52;;;14.60;99.90;;;;;;5157275;27;20057;-61
2023/04/21 07:45:44;;;;;;;15.43;9.20;;;14.80;99.90;;;;;;5157135;27;20043;-59
2023/04/21 07:48:10;;;;;;;19.63;7.80;;;14.70;99.90;;;;;;5157355;27;20083;-58
2023/04/21 07:50:36;;;;;;;17.60;8.38;;;14.90;99.90;;;;;;5157141;27;20043;-59
2023/04/21 07:53:01;;;;;;;19.45;7.80;;;15.10;99.90;;;;;;5138371;27;20126;-59
2023/04/21 07:55:28;;;;;;;12.73;7.43;;;15.20;99.90;;;;;;5154628;27;20091;-59
2023/04/21 07:57:54;;;;;;;12.75;7.57;;;15.40;99.90;;;;;;5135435;27;20058;-59
2023/04/21 08:00:20;;;;;;;13.52;8.93;;;15.60;99.90;;;;;;5136284;27;20473;-60
2023/04/21 08:02:45;;;;;;;15.75;8.65;;;15.80;99.90;;;;;;5136432;27;20062;-59
2023/04/21 08:05:11;;;;;;;17.42;8.15;;;16.00;99.90;;;;;;5135963;27;20494;-60
2023/04/21 08:07:37;;;;;;;15.13;7.93;;;16.00;99.90;;;;;;5136215;27;20080;-59
2023/04/21 08:10:04;;;;;;;11.63;7.95;;;15.80;99.90;;;;;;5135964;27;20039;-60
2023/04/21 08:12:29;;;;;;;14.70;8.32;;;15.80;99.90;;;;;;5136039;27;20098;-60
2023/04/21 08:14:55;;;;;;;15.40;7.63;;;15.90;99.90;;;;;;5117098;27;20598;-62
2023/04/21 08:17:21;;;;;;;20.17;9.32;;;16.10;99.90;;;;;;5135927;27;20039;-62
2023/04/21 08:19:46;;;;;;;15.65;8.23;;;16.30;99.90;;;;;;5154591;27;20046;-61
2023/04/21 08:22:12;;;;;;;18.38;8.88;;;16.60;99.90;;;;;;5156349;27;20046;-60
2023/04/21 08:24:37;;;;;;;14.20;8.25;;;16.90;99.90;;;;;;5156191;27;20046;-61
2023/04/21 08:27:03;;;;;;;17.42;8.45;;;16.80;99.90;;;;;;5147167;27;20043;-59
2023/04/21 08:29:29;;;;;;;14.43;7.85;;;16.90;99.90;;;;;;5135639;27;20038;-59
2023/04/21 08:31:55;;;;;;;11.82;7.40;;;17.20;99.90;;;;;;5135627;27;20358;-60
2023/04/21 08:34:21;;;;;;;23.58;8.35;;;17.10;99.90;;;;;;5135191;27;20063;-60
2023/04/21 08:36:47;;;;;;;16.42;8.35;;;16.80;99.90;;;;;;5135240;27;20489;-60
2023/04/21 08:39:15;;;;;;;14.05;8.38;;;17.00;99.90;;;;;;5099765;27;20046;-60
2023/04/21 08:41:40;;;;;;;17.07;7.57;;;17.00;99.90;;;;;;5116674;27;20138;-60
2023/04/21 08:44:07;;;;;;;17.35;8.23;;;17.40;99.90;;;;;;5135168;27;20126;-60
2023/04/21 08:46:34;;;;;;;13.68;8.23;;;17.30;99.90;;;;;;5135270;27;20035;-61
2023/04/21 08:49:01;;;;;;;17.63;8.25;;;17.50;99.90;;;;;;5116955;27;20050;-60
2023/04/21 08:51:27;;;;;;;13.05;7.63;;;17.70;99.90;;;;;;5135083;27;20122;-58
2023/04/21 08:53:56;;;;;;;13.13;7.43;;;17.70;99.90;;;;;;5134869;27;20403;-58
2023/04/21 08:56:26;;;;;;;15.45;8.25;;;17.70;99.90;;;;;;5135116;27;20372;-59
2023/04/21 08:58:52;;;;;;;17.33;7.78;;;18.00;99.90;;;;;;5115794;27;20050;-59
2023/04/21 09:01:18;;;;;;;13.95;7.75;;;18.30;99.90;;;;;;5134887;27;20035;-60
2023/04/21 09:03:44;;;;;;;20.42;7.90;;;18.30;99.90;;;;;;5135235;27;20114;-60
2023/04/21 09:06:11;;;;;;;14.25;8.20;;;18.30;99.90;;;;;;5134780;27;20034;-60
2023/04/21 09:08:54;;;;;;;13.82;7.20;;;18.60;99.90;;;;;;5133547;27;20091;-59
2023/04/21 09:11:20;;;;;;;14.23;8.15;;;18.60;99.90;;;;;;5134674;27;20434;-59
2023/04/21 09:13:46;;;;;;;21.65;8.25;;;18.50;99.90;;;;;;5134740;27;20042;-59
2023/04/21 09:16:20;;;;;;;14.82;7.55;;;18.70;99.90;;;;;;5134606;27;20035;-60
2023/04/21 09:18:46;;;;;;;11.80;7.65;;;18.90;99.90;;;;;;5134360;27;20035;-60
2023/04/21 09:21:17;;;;;;;13.13;8.30;;;18.70;99.90;;;;;;5132268;27;20531;-60
2023/04/21 09:23:46;;;;;;;12.77;7.65;;;18.70;99.90;;;;;;5134186;27;20063;-61
2023/04/21 09:26:12;;;;;;;16.38;7.28;;;18.60;99.90;;;;;;5134240;27;20054;-60
2023/04/21 09:28:47;;;;;;;11.32;6.82;;;18.80;99.90;;;;;;5134281;27;20034;-61
2023/04/21 09:31:18;;;;;;;14.35;8.13;;;19.00;99.90;;;;;;5152532;27;20042;-60
2023/04/21 09:33:48;;;;;;;12.85;7.45;;;19.00;99.90;;;;;;5143166;27;20426;-58
2023/04/21 09:36:22;;;;;;;15.52;7.25;;;19.10;99.90;;;;;;5129544;27;20038;-60
2023/04/21 09:38:56;;;;;;;15.55;7.60;;;19.50;99.90;;;;;;5128492;27;20023;-60
2023/04/21 09:41:22;;;;;;;15.77;7.45;;;19.30;99.90;;;;;;5148044;27;20062;-59
2023/04/21 09:43:48;;;;;;;13.77;7.72;;;19.40;99.90;;;;;;5146544;27;20502;-59
2023/04/21 09:46:16;;;;;;;12.20;7.43;;;19.40;99.90;;;;;;5145102;27;20031;-60
2023/04/21 09:48:44;;;;;;;16.27;7.32;;;19.40;99.90;;;;;;5142592;27;20035;-59
2023/04/21 09:51:15;;;;;;;17.75;7.45;;;19.40;99.90;;;;;;5145265;27;20392;-59
2023/04/21 09:53:42;;;;;;;11.85;7.07;;;19.60;99.90;;;;;;5142464;27;20023;-59
2023/04/21 09:56:12;;;;;;;14.65;7.40;;;19.50;99.90;;;;;;5142989;27;20035;-59
2023/04/21 09:58:53;;;;;;;15.75;7.40;;;19.50;99.90;;;;;;5132973;27;20088;-59
2023/04/21 10:01:19;;;;;;;13.85;6.85;;;19.60;99.90;;;;;;5140734;27;20039;-59
2023/04/21 10:03:47;;;;;;;11.98;6.90;;;19.80;99.90;;;;;;5133203;27;20042;-59
2023/04/21 10:06:13;;;;;;;17.33;6.70;;;19.80;99.90;;;;;;5150353;27;20066;-58
2023/04/21 10:08:40;;;;;;;12.02;7.05;;;19.70;99.90;;;;;;5153530;27;20122;-59
2023/04/21 10:11:06;;;;;;;15.02;7.38;;;19.60;99.90;;;;;;5153816;27;20709;-59
2023/04/21 10:13:32;;;;;;;11.65;6.93;;;19.80;99.90;;;;;;5142541;27;20181;-59
2023/04/21 10:16:06;;;;;;;16.73;7.55;;;19.60;99.90;;;;;;5133122;27;20097;-59
2023/04/21 10:18:43;;;;;;;16.20;7.50;;;19.70;99.90;;;;;;5150142;27;20070;-59
2023/04/21 10:21:11;;;;;;;24.17;7.57;;;19.90;99.90;;;;;;5140770;27;20027;-60
2023/04/21 10:23:51;;;;;;;12.32;7.25;;;20.10;99.90;;;;;;5149226;27;20031;-60
2023/04/21 10:26:25;;;;;;;14.40;7.28;;;20.00;99.90;;;;;;5152253;27;20384;-59
2023/04/21 10:29:27;;;;;;;18.48;7.97;;;20.50;99.90;;;;;;5150052;27;20050;-58
2023/04/21 10:31:53;;;;;;;13.68;7.28;;;20.30;99.90;;;;;;5133274;28;20039;-59
2023/04/21 10:34:40;;;;;;;14.10;7.32;;;20.40;99.90;;;;;;5133411;28;20039;-60
2023/04/21 10:37:07;;;;;;;17.42;7.85;;;20.60;99.90;;;;;;5097739;28;20088;-60
2023/04/21 10:39:51;;;;;;;15.93;8.00;;;20.60;99.90;;;;;;5132621;27;20465;-58
2023/04/21 10:42:26;;;;;;;17.50;7.47;;;20.60;99.90;;;;;;5131721;27;20058;-59
2023/04/21 10:44:57;;;;;;;10.93;6.53;;;20.80;99.90;;;;;;5132997;28;20031;-59
2023/04/21 10:47:30;;;;;;;12.32;6.65;;;20.80;99.90;;;;;;5133054;28;20473;-60
2023/04/21 10:49:57;;;;;;;14.38;6.75;;;20.80;99.90;;;;;;5132640;27;20047;-60
2023/04/21 10:52:33;;;;;;;11.48;6.63;;;20.80;99.90;;;;;;5132776;28;20031;-60
2023/04/21 10:54:59;;;;;;;9.40;6.43;;;21.00;99.90;;;;;;5113971;28;20050;-60
2023/04/21 10:57:24;;;;;;;13.77;7.03;;;21.60;99.90;;;;;;5113563;28;20035;-60
2023/04/21 10:59:50;;;;;;;15.00;6.65;;;21.00;99.90;;;;;;5131885;28;20110;-60
2023/04/21 11:02:17;;;;;;;10.07;6.07;;;21.10;99.90;;;;;;5132633;28;20085;-59
2023/04/21 11:04:46;;;;;;;14.68;6.50;;;21.00;99.90;;;;;;5132779;28;20061;-59
2023/04/21 11:07:13;;;;;;;16.15;7.32;;;21.10;99.90;;;;;;5114418;28;20065;-59
2023/04/21 11:09:40;;;;;;;14.30;6.55;;;21.20;99.90;;;;;;5132497;28;20035;-59
2023/04/21 11:12:09;;;;;;;14.07;6.10;;;21.20;99.90;;;;;;5132491;28;20101;-59
2023/04/21 11:14:36;;;;;;;7.60;5.53;;;21.60;99.90;;;;;;5132795;28;20071;-59
2023/04/21 11:17:10;;;;;;;12.70;5.97;;;21.30;99.80;;;;;;5132829;28;20056;-59
2023/04/21 11:19:36;;;;;;;16.92;6.45;;;21.30;99.90;;;;;;5142485;27;20033;-60
2023/04/21 11:22:04;;;;;;;15.65;6.53;;;21.20;99.90;;;;;;5153151;27;20031;-61
2023/04/21 11:24:33;;;;;;;10.25;5.15;;;21.40;99.90;;;;;;5153425;27;20392;-60
2023/04/21 11:27:01;;;;;;;10.60;5.75;;;21.40;99.80;;;;;;5152085;27;20380;-60
2023/04/21 11:29:30;;;;;;;17.23;6.85;;;21.60;99.20;;;;;;5151247;27;20038;-60
2023/04/21 11:31:57;;;;;;;;;;;21.60;99.20;;;;;;5152903;27;20070;-59
2023/04/21 11:34:25;;;;;;;9.82;5.05;;;21.60;98.90;;;;;;5155034;27;19963;-59
2023/04/21 11:36:52;;;;;;;10.63;5.30;;;21.60;98.90;;;;;;5154973;27;20045;-60
2023/04/21 11:39:20;;;;;;;8.75;4.72;;;21.60;99.40;;;;;;5155092;27;20091;-60
2023/04/21 11:41:48;;;;;;;8.35;5.13;;;21.80;98.80;;;;;;5145983;27;20047;-59
2023/04/21 11:44:49;;;;;;;11.75;4.53;;;21.90;98.60;;;;;;5135608;27;20560;-60
2023/04/21 11:47:20;;;;;;;15.23;4.63;;;21.70;97.70;;;;;;5135072;27;20043;-61
2023/04/21 11:49:53;;;;;;;13.18;4.88;;;22.00;98.30;;;;;;5144456;27;20472;-60
2023/04/21 11:52:33;;;;;;;7.63;4.35;;;21.90;97.80;;;;;;5156434;27;20488;-61
2023/04/21 11:55:01;;;;;;;14.30;4.78;;;21.90;98.20;;;;;;5135326;27;20488;-60
2023/04/21 11:57:28;;;;;;;11.55;4.97;;;21.80;98.20;;;;;;5135649;27;20445;-61
2023/04/21 11:59:57;;;;;;;11.43;4.32;;;21.70;97.50;;;;;;5135330;27;20550;-61
2023/04/21 12:02:28;;;;;;;11.18;4.35;;;21.70;98.10;;;;;;5135329;27;20481;-61
2023/04/21 12:05:04;;;;;;;11.02;4.20;;;21.60;97.80;;;;;;5135574;27;20047;-61
2023/04/21 12:07:36;;;;;;;16.20;5.03;;;21.50;98.10;;;;;;5135677;27;20122;-61
2023/04/21 12:10:15;;;;;;;8.80;4.18;;;21.30;98.40;;;;;;5135934;27;20061;-61
2023/04/21 12:12:42;;;;;;;6.47;4.18;;;21.40;98.30;;;;;;5100914;27;20078;-61
2023/04/21 12:15:09;;;;;;;11.65;4.50;;;21.40;97.70;;;;;;5135401;27;20035;-62
2023/04/21 12:17:59;;;;;;;12.23;3.85;;;21.40;98.30;;;;;;5135086;27;20118;-58
2023/04/21 12:20:28;;;;;;;10.18;4.55;;;21.50;98.30;;;;;;5045813;28;20517;-59
2023/04/21 12:22:55;;;;;;;8.75;4.43;;;21.40;97.80;;;;;;5051903;28;20183;-59
2023/04/21 12:25:21;;;;;;;14.32;4.93;;;21.30;97.70;;;;;;5051490;28;20143;-59
2023/04/21 12:27:51;;;;;;;14.15;3.75;;;21.10;97.60;;;;;;5051585;28;20499;-59
2023/04/21 12:30:18;;;;;;;11.07;3.67;;;21.10;97.10;;;;;;5051393;28;20049;-59
2023/04/21 12:32:43;;;;;;;13.25;4.28;;;21.00;96.70;;;;;;5051424;28;20052;-61
2023/04/21 12:35:10;;;;;;;17.05;4.13;;;20.80;96.80;;;;;;5051625;28;20498;-58
2023/04/21 12:37:36;;;;;;;10.98;4.00;;;20.90;97.10;;;;;;5051561;28;20053;-58